sensor_id;sensor_type;location;lat;lon;timestamp;pressure;altitude;pressure_sealevel;temperature;humidity
71306;BME280;59097;46.858;18.632;2023-02-17T00:01:58;101419.13;;;-0.58;100.00
71306;BME280;59097;46.858;18.632;2023-02-17T00:04:28;101419.50;;;-0.78;100.00
71306;BME280;59097;46.858;18.632;2023-02-17T00:06:57;101416.91;;;-0.64;100.00
71306;BME280;59097;46.858;18.632;2023-02-17T00:09:26;101412.78;;;-0.68;100.00
71306;BME280;59097;46.858;18.632;2023-02-17T00:11:55;101428.88;;;-0.76;100.00
71306;BME280;59097;46.858;18.632;2023-02-17T00:14:38;101431.22;;;-0.71;100.00
71306;BME280;59097;46.858;18.632;2023-02-17T00:17:36;101434.94;;;-0.75;100.00
71306;BME280;59097;46.858;18.632;2023-02-17T00:20:18;101423.28;;;-0.84;100.00
71306;BME280;59097;46.858;18.632;2023-02-17T00:22:44;101432.91;;;-0.70;100.00
71306;BME280;59097;46.858;18.632;2023-02-17T00:25:11;101426.91;;;-0.86;100.00
71306;BME280;59097;46.858;18.632;2023-02-17T00:27:37;101423.41;;;-0.85;100.00
71306;BME280;59097;46.858;18.632;2023-02-17T00:30:05;101415.59;;;-0.85;100.00
71306;BME280;59097;46.858;18.632;2023-02-17T00:32:38;101431.09;;;-0.84;100.00
71306;BME280;59097;46.858;18.632;2023-02-17T00:35:07;101427.00;;;-1.02;100.00
71306;BME280;59097;46.858;18.632;2023-02-17T00:37:36;101434.00;;;-0.88;100.00
71306;BME280;59097;46.858;18.632;2023-02-17T00:40:06;101423.84;;;-0.93;100.00
71306;BME280;59097;46.858;18.632;2023-02-17T00:42:35;101426.84;;;-0.85;100.00
71306;BME280;59097;46.858;18.632;2023-02-17T00:45:04;101422.84;;;-0.90;100.00
71306;BME280;59097;46.858;18.632;2023-02-17T00:47:32;101422.66;;;-0.87;100.00
71306;BME280;59097;46.858;18.632;2023-02-17T00:50:01;101419.50;;;-0.92;100.00
71306;BME280;59097;46.858;18.632;2023-02-17T00:52:29;101398.47;;;-1.03;100.00
71306;BME280;59097;46.858;18.632;2023-02-17T00:54:57;101415.09;;;-0.92;100.00
71306;BME280;59097;46.858;18.632;2023-02-17T00:57:40;101408.69;;;-1.00;100.00
71306;BME280;59097;46.858;18.632;2023-02-17T01:00:37;101422.84;;;-0.90;100.00
71306;BME280;59097;46.858;18.632;2023-02-17T01:03:04;101419.50;;;-0.78;100.00
71306;BME280;59097;46.858;18.632;2023-02-17T01:05:31;101422.28;;;-0.81;100.00
71306;BME280;59097;46.858;18.632;2023-02-17T01:07:58;101424.13;;;-0.83;100.00
71306;BME280;59097;46.858;18.632;2023-02-17T01:10:24;101420.97;;;-0.88;100.00
71306;BME280;59097;46.858;18.632;2023-02-17T01:12:51;101417.34;;;-0.86;100.00
71306;BME280;59097;46.858;18.632;2023-02-17T01:15:24;101411.81;;;-0.11;100.00
71306;BME280;59097;46.858;18.632;2023-02-17T01:17:54;101411.81;;;-0.11;100.00
71306;BME280;59097;46.858;18.632;2023-02-17T01:20:23;101423.41;;;-0.71;100.00
71306;BME280;59097;46.858;18.632;2023-02-17T01:22:51;101418.09;;;-0.70;100.00
71306;BME280;59097;46.858;18.632;2023-02-17T01:25:19;101408.72;;;-0.72;100.00
71306;BME280;59097;46.858;18.632;2023-02-17T01:27:48;101409.56;;;-0.72;100.00
71306;BME280;59097;46.858;18.632;2023-02-17T01:30:16;101403.88;;;-0.64;100.00
71306;BME280;59097;46.858;18.632;2023-02-17T01:32:46;101406.84;;;-0.56;100.00
71306;BME280;59097;46.858;18.632;2023-02-17T01:35:15;101399.03;;;-0.42;100.00
71306;BME280;59097;46.858;18.632;2023-02-17T01:37:51;101390.19;;;-0.39;100.00
71306;BME280;59097;46.858;18.632;2023-02-17T01:40:48;101396.94;;;-0.23;100.00
71306;BME280;59097;46.858;18.632;2023-02-17T01:43:30;101397.16;;;-0.26;100.00
71306;BME280;59097;46.858;18.632;2023-02-17T01:46:02;101397.41;;;-0.30;100.00
71306;BME280;59097;46.858;18.632;2023-02-17T01:48:49;101395.03;;;-0.33;100.00
71306;BME280;59097;46.858;18.632;2023-02-17T01:51:21;101390.63;;;-0.33;100.00
71306;BME280;59097;46.858;18.632;2023-02-17T01:54:41;101384.06;;;0.42;100.00
71306;BME280;59097;46.858;18.632;2023-02-17T01:57:09;101384.06;;;0.42;100.00
71306;BME280;59097;46.858;18.632;2023-02-17T01:59:39;101394.13;;;-0.20;100.00
71306;BME280;59097;46.858;18.632;2023-02-17T02:02:09;101381.59;;;-0.27;100.00
71306;BME280;59097;46.858;18.632;2023-02-17T02:04:43;101387.09;;;-0.32;100.00
71306;BME280;59097;46.858;18.632;2023-02-17T02:07:16;101392.31;;;-0.32;100.00
71306;BME280;59097;46.858;18.632;2023-02-17T02:10:02;101390.19;;;-0.39;100.00
71306;BME280;59097;46.858;18.632;2023-02-17T02:12:59;101403.37;;;-0.42;100.00
71306;BME280;59097;46.858;18.632;2023-02-17T02:15:56;101400.88;;;-0.44;100.00
71306;BME280;59097;46.858;18.632;2023-02-17T02:21:49;101403.41;;;-0.56;100.00
71306;BME280;59097;46.858;18.632;2023-02-17T02:24:48;101387.47;;;0.03;100.00
71306;BME280;59097;46.858;18.632;2023-02-17T02:33:02;101390.00;;;-0.79;100.00
71306;BME280;59097;46.858;18.632;2023-02-17T02:40:48;101395.03;;;-0.76;100.00
71306;BME280;59097;46.858;18.632;2023-02-17T02:43:19;101389.53;;;-0.71;100.00
71306;BME280;59097;46.858;18.632;2023-02-17T02:45:48;101365.84;;;-0.95;100.00
71306;BME280;59097;46.858;18.632;2023-02-17T02:48:47;101381.91;;;-0.74;100.00
71306;BME280;59097;46.858;18.632;2023-02-17T02:57:35;101372.84;;;0.00;100.00
71306;BME280;59097;46.858;18.632;2023-02-17T03:00:14;101372.84;;;0.00;100.00
71306;BME280;59097;46.858;18.632;2023-02-17T03:02:58;101383.13;;;-0.66;100.00
71306;BME280;59097;46.858;18.632;2023-02-17T03:08:45;101384.25;;;-0.84;100.00
71306;BME280;59097;46.858;18.632;2023-02-17T03:11:22;101378.94;;;-0.96;100.00
71306;BME280;59097;46.858;18.632;2023-02-17T03:14:06;101376.63;;;-1.01;100.00
71306;BME280;59097;46.858;18.632;2023-02-17T03:16:46;101377.91;;;-0.94;100.00
71306;BME280;59097;46.858;18.632;2023-02-17T03:19:44;101374.09;;;-0.88;100.00
71306;BME280;59097;46.858;18.632;2023-02-17T03:22:34;101368.34;;;-0.93;100.00
71306;BME280;59097;46.858;18.632;2023-02-17T03:25:02;101377.62;;;-0.89;100.00
71306;BME280;59097;46.858;18.632;2023-02-17T03:27:29;101374.78;;;-0.85;100.00
71306;BME280;59097;46.858;18.632;2023-02-17T03:29:56;101364.81;;;-0.92;100.00
71306;BME280;59097;46.858;18.632;2023-02-17T03:32:23;101366.94;;;-0.99;100.00
71306;BME280;59097;46.858;18.632;2023-02-17T03:34:56;101373.31;;;-0.34;100.00
71306;BME280;59097;46.858;18.632;2023-02-17T03:37:25;101373.31;;;-0.34;100.00
71306;BME280;59097;46.858;18.632;2023-02-17T03:39:53;101380.50;;;-1.08;100.00
71306;BME280;59097;46.858;18.632;2023-02-17T03:42:21;101380.41;;;-1.06;100.00
71306;BME280;59097;46.858;18.632;2023-02-17T03:44:50;101376.97;;;-1.07;100.00
71306;BME280;59097;46.858;18.632;2023-02-17T03:47:18;101378.94;;;-1.10;100.00
71306;BME280;59097;46.858;18.632;2023-02-17T03:49:47;101382.84;;;-1.03;100.00
71306;BME280;59097;46.858;18.632;2023-02-17T03:52:17;101375.22;;;-1.06;100.00
71306;BME280;59097;46.858;18.632;2023-02-17T03:54:54;101362.69;;;-1.00;100.00
71306;BME280;59097;46.858;18.632;2023-02-17T03:57:36;101371.41;;;-0.87;100.00
71306;BME280;59097;46.858;18.632;2023-02-17T04:00:04;101374.84;;;-0.86;100.00
71306;BME280;59097;46.858;18.632;2023-02-17T04:02:31;101371.31;;;-0.85;100.00
71306;BME280;59097;46.858;18.632;2023-02-17T04:04:57;101372.06;;;-0.83;100.00
71306;BME280;59097;46.858;18.632;2023-02-17T04:07:24;101373.00;;;-0.70;100.00
71306;BME280;59097;46.858;18.632;2023-02-17T04:09:57;101370.84;;;-0.64;100.00
71306;BME280;59097;46.858;18.632;2023-02-17T04:12:26;101373.84;;;-0.70;100.00
71306;BME280;59097;46.858;18.632;2023-02-17T04:14:54;101374.69;;;-0.69;100.00
71306;BME280;59097;46.858;18.632;2023-02-17T04:17:22;101379.87;;;-0.69;100.00
71306;BME280;59097;46.858;18.632;2023-02-17T04:19:51;101375.31;;;-0.66;100.00
71306;BME280;59097;46.858;18.632;2023-02-17T04:22:20;101367.97;;;-0.73;100.00
71306;BME280;59097;46.858;18.632;2023-02-17T04:24:48;101377.28;;;-0.69;100.00
71306;BME280;59097;46.858;18.632;2023-02-17T04:27:17;101378.00;;;-0.81;100.00
71306;BME280;59097;46.858;18.632;2023-02-17T04:29:45;101371.31;;;-0.85;100.00
71306;BME280;59097;46.858;18.632;2023-02-17T04:32:28;101375.41;;;-0.95;100.00
71306;BME280;59097;46.858;18.632;2023-02-17T04:35:18;101381.63;;;-0.98;100.00
71306;BME280;59097;46.858;18.632;2023-02-17T04:37:44;101376.50;;;-0.99;100.00
71306;BME280;59097;46.858;18.632;2023-02-17T04:40:11;101375.59;;;-0.98;100.00
71306;BME280;59097;46.858;18.632;2023-02-17T04:42:38;101378.31;;;-1.00;100.00
71306;BME280;59097;46.858;18.632;2023-02-17T04:45:06;101352.53;;;-1.18;100.00
71306;BME280;59097;46.858;18.632;2023-02-17T04:47:39;101367.03;;;-0.44;100.00
71306;BME280;59097;46.858;18.632;2023-02-17T04:50:09;101367.03;;;-0.44;100.00
71306;BME280;59097;46.858;18.632;2023-02-17T04:52:38;101362.75;;;-1.15;100.00
71306;BME280;59097;46.858;18.632;2023-02-17T04:55:06;101363.88;;;-1.05;100.00
71306;BME280;59097;46.858;18.632;2023-02-17T04:57:38;101372.06;;;-0.97;100.00
71306;BME280;59097;46.858;18.632;2023-02-17T05:00:07;101371.84;;;-0.94;100.00
71306;BME280;59097;46.858;18.632;2023-02-17T05:02:35;101356.63;;;-1.00;100.00
71306;BME280;59097;46.858;18.632;2023-02-17T05:05:04;101369.37;;;-0.96;100.00
71306;BME280;59097;46.858;18.632;2023-02-17T05:07:47;101375.22;;;-1.06;100.00
71306;BME280;59097;46.858;18.632;2023-02-17T05:10:45;101373.72;;;-1.10;100.00
71306;BME280;59097;46.858;18.632;2023-02-17T05:13:26;101380.50;;;-1.08;100.00
71306;BME280;59097;46.858;18.632;2023-02-17T05:15:53;101386.19;;;-1.01;100.00
71306;BME280;59097;46.858;18.632;2023-02-17T05:18:20;101387.03;;;-1.01;100.00
71306;BME280;59097;46.858;18.632;2023-02-17T05:20:47;101377.81;;;-1.06;100.00
71306;BME280;59097;46.858;18.632;2023-02-17T05:23:13;101382.37;;;-1.10;100.00
71306;BME280;59097;46.858;18.632;2023-02-17T05:25:47;101368.66;;;-0.43;100.00
71306;BME280;59097;46.858;18.632;2023-02-17T05:28:16;101368.66;;;-0.43;100.00
71306;BME280;59097;46.858;18.632;2023-02-17T05:30:48;101369.72;;;-1.02;100.00
71306;BME280;59097;46.858;18.632;2023-02-17T05:33:16;101376.63;;;-1.01;100.00
71306;BME280;59097;46.858;18.632;2023-02-17T05:35:45;101389.44;;;-0.98;100.00
71306;BME280;59097;46.858;18.632;2023-02-17T05:38:14;101383.28;;;-0.97;100.00
71306;BME280;59097;46.858;18.632;2023-02-17T05:40:43;101383.03;;;-0.92;100.00
71306;BME280;59097;46.858;18.632;2023-02-17T05:43:11;101379.31;;;-0.88;100.00
71306;BME280;59097;46.858;18.632;2023-02-17T05:45:51;101377.62;;;-0.89;100.00
71306;BME280;59097;46.858;18.632;2023-02-17T05:48:48;101371.06;;;-0.95;100.00
71306;BME280;59097;46.858;18.632;2023-02-17T05:51:29;101386.78;;;-0.82;100.00
71306;BME280;59097;46.858;18.632;2023-02-17T05:53:56;101396.63;;;-0.73;100.00
71306;BME280;59097;46.858;18.632;2023-02-17T05:56:22;101383.84;;;-0.64;100.00
71306;BME280;59097;46.858;18.632;2023-02-17T05:58:49;101392.31;;;-0.46;100.00
71306;BME280;59097;46.858;18.632;2023-02-17T06:01:15;101347.47;;;-0.51;100.00
71306;BME280;59097;46.858;18.632;2023-02-17T06:03:42;101352.00;;;-0.40;100.00
71306;BME280;59097;46.858;18.632;2023-02-17T06:06:08;101385.81;;;0.02;100.00
71306;BME280;59097;46.858;18.632;2023-02-17T06:08:35;101379.50;;;0.19;100.00
71306;BME280;59097;46.858;18.632;2023-02-17T06:11:02;101374.22;;;0.33;100.00
71306;BME280;59097;46.858;18.632;2023-02-17T06:13:29;101376.72;;;0.34;100.00
71306;BME280;59097;46.858;18.632;2023-02-17T06:16:04;101375.56;;;1.15;100.00
71306;BME280;59097;46.858;18.632;2023-02-17T06:18:36;101375.56;;;1.15;100.00
71306;BME280;59097;46.858;18.632;2023-02-17T06:21:05;101372.37;;;0.47;100.00
71306;BME280;59097;46.858;18.632;2023-02-17T06:23:33;101380.75;;;0.52;100.00
71306;BME280;59097;46.858;18.632;2023-02-17T06:26:02;101375.75;;;0.62;100.00
71306;BME280;59097;46.858;18.632;2023-02-17T06:28:32;101382.44;;;0.66;100.00
71306;BME280;59097;46.858;18.632;2023-02-17T06:31:04;101374.09;;;0.61;100.00
71306;BME280;59097;46.858;18.632;2023-02-17T06:33:51;101380.38;;;0.71;100.00
71306;BME280;59097;46.858;18.632;2023-02-17T06:36:42;101381.41;;;0.69;100.00
71306;BME280;59097;46.858;18.632;2023-02-17T06:39:23;101382.44;;;0.66;100.00
71306;BME280;59097;46.858;18.632;2023-02-17T06:41:59;101378.88;;;0.67;100.00
71306;BME280;59097;46.858;18.632;2023-02-17T06:45:09;101382.28;;;0.42;100.00
71306;BME280;59097;46.858;18.632;2023-02-17T06:47:49;101374.88;;;0.49;100.00
71306;BME280;59097;46.858;18.632;2023-02-17T06:50:40;101387.69;;;0.91;100.00
71306;BME280;59097;46.858;18.632;2023-02-17T06:53:27;101381.31;;;0.95;100.00
71306;BME280;59097;46.858;18.632;2023-02-17T06:56:00;101385.28;;;1.26;100.00
71306;BME280;59097;46.858;18.632;2023-02-17T06:59:05;101378.97;;;1.54;100.00
71306;BME280;59097;46.858;18.632;2023-02-17T07:01:40;101377.75;;;1.21;100.00
71306;BME280;59097;46.858;18.632;2023-02-17T07:04:17;101377.31;;;1.53;100.00
71306;BME280;59097;46.858;18.632;2023-02-17T07:06:55;101373.00;;;1.52;100.00
71306;BME280;59097;46.858;18.632;2023-02-17T07:09:42;101363.25;;;1.30;100.00
71306;BME280;59097;46.858;18.632;2023-02-17T07:12:28;101378.66;;;1.58;100.00
71306;BME280;59097;46.858;18.632;2023-02-17T07:15:15;101374.19;;;1.48;100.00
71306;BME280;59097;46.858;18.632;2023-02-17T07:17:59;101382.94;;;1.47;100.00
71306;BME280;59097;46.858;18.632;2023-02-17T07:20:31;101392.50;;;1.22;100.00
71306;BME280;59097;46.858;18.632;2023-02-17T07:23:13;101370.97;;;1.19;100.00
71306;BME280;59097;46.858;18.632;2023-02-17T07:25:54;101390.03;;;1.57;100.00
71306;BME280;59097;46.858;18.632;2023-02-17T07:28:40;101383.97;;;1.57;100.00
71306;BME280;59097;46.858;18.632;2023-02-17T07:31:19;101389.44;;;1.41;100.00
71306;BME280;59097;46.858;18.632;2023-02-17T07:33:52;101387.97;;;1.50;100.00
71306;BME280;59097;46.858;18.632;2023-02-17T07:36:24;101394.22;;;1.60;100.00
71306;BME280;59097;46.858;18.632;2023-02-17T07:39:02;101400.19;;;1.49;100.00
71306;BME280;59097;46.858;18.632;2023-02-17T07:41:44;101393.16;;;1.62;100.00
71306;BME280;59097;46.858;18.632;2023-02-17T07:44:38;101399.13;;;2.01;100.00
71306;BME280;59097;46.858;18.632;2023-02-17T07:47:18;101401.47;;;1.92;100.00
71306;BME280;59097;46.858;18.632;2023-02-17T07:50:07;101401.84;;;2.46;100.00
71306;BME280;59097;46.858;18.632;2023-02-17T07:52:44;101363.88;;;2.41;100.00
71306;BME280;59097;46.858;18.632;2023-02-17T07:55:23;101400.94;;;2.59;100.00
71306;BME280;59097;46.858;18.632;2023-02-17T07:57:57;101404.41;;;3.05;100.00
71306;BME280;59097;46.858;18.632;2023-02-17T08:00:38;101407.78;;;3.51;100.00
71306;BME280;59097;46.858;18.632;2023-02-17T08:03:18;101406.84;;;3.52;100.00
71306;BME280;59097;46.858;18.632;2023-02-17T08:06:02;101398.28;;;4.04;100.00
71306;BME280;59097;46.858;18.632;2023-02-17T08:08:48;101400.13;;;4.24;100.00
71306;BME280;59097;46.858;18.632;2023-02-17T08:11:46;101396.41;;;3.84;100.00
71306;BME280;59097;46.858;18.632;2023-02-17T08:14:43;101402.87;;;3.69;100.00
71306;BME280;59097;46.858;18.632;2023-02-17T08:17:27;101394.31;;;3.67;100.00
71306;BME280;59097;46.858;18.632;2023-02-17T08:20:26;101371.53;;;3.45;100.00
71306;BME280;59097;46.858;18.632;2023-02-17T08:23:21;101397.50;;;3.81;100.00
71306;BME280;59097;46.858;18.632;2023-02-17T08:25:58;101395.25;;;3.66;100.00
71306;BME280;59097;46.858;18.632;2023-02-17T08:28:46;101400.81;;;3.83;100.00
71306;BME280;59097;46.858;18.632;2023-02-17T08:31:32;101392.25;;;4.24;100.00
71306;BME280;59097;46.858;18.632;2023-02-17T08:34:09;101382.59;;;4.98;100.00
71306;BME280;59097;46.858;18.632;2023-02-17T08:36:49;101386.25;;;5.67;100.00
71306;BME280;59097;46.858;18.632;2023-02-17T08:39:37;101391.38;;;6.47;97.85
71306;BME280;59097;46.858;18.632;2023-02-17T08:42:15;101384.09;;;7.06;94.92
71306;BME280;59097;46.858;18.632;2023-02-17T08:44:56;101389.22;;;7.17;91.11
71306;BME280;59097;46.858;18.632;2023-02-17T08:47:36;101393.41;;;7.47;90.97
71306;BME280;59097;46.858;18.632;2023-02-17T08:50:36;101376.66;;;7.38;89.40
71306;BME280;59097;46.858;18.632;2023-02-17T08:53:41;101387.50;;;7.90;86.55
71306;BME280;59097;46.858;18.632;2023-02-17T08:56:32;101390.91;;;9.31;82.88
71306;BME280;59097;46.858;18.632;2023-02-17T08:59:16;101389.94;;;10.16;79.51
71306;BME280;59097;46.858;18.632;2023-02-17T09:01:52;101374.84;;;9.67;79.05
71306;BME280;59097;46.858;18.632;2023-02-17T09:04:30;101372.28;;;10.57;76.93
71306;BME280;59097;46.858;18.632;2023-02-17T09:07:02;101372.72;;;10.20;76.10
71306;BME280;59097;46.858;18.632;2023-02-17T09:09:40;101358.97;;;10.25;75.93
71306;BME280;59097;46.858;18.632;2023-02-17T09:12:18;101355.94;;;9.54;76.97
71306;BME280;59097;46.858;18.632;2023-02-17T09:14:56;101355.19;;;8.41;81.76
71306;BME280;59097;46.858;18.632;2023-02-17T09:17:41;101360.62;;;8.57;82.79
71306;BME280;59097;46.858;18.632;2023-02-17T09:20:21;101353.75;;;9.49;80.85
71306;BME280;59097;46.858;18.632;2023-02-17T09:22:59;101361.63;;;8.56;82.08
71306;BME280;59097;46.858;18.632;2023-02-17T09:25:45;101362.06;;;8.34;83.48
71306;BME280;59097;46.858;18.632;2023-02-17T09:28:26;101348.81;;;8.95;83.64
71306;BME280;59097;46.858;18.632;2023-02-17T09:31:14;101347.94;;;9.87;79.38
71306;BME280;59097;46.858;18.632;2023-02-17T09:33:58;101353.84;;;10.55;77.45
71306;BME280;59097;46.858;18.632;2023-02-17T09:36:28;101350.50;;;11.02;75.83
71306;BME280;59097;46.858;18.632;2023-02-17T09:38:58;101346.06;;;10.70;74.21
71306;BME280;59097;46.858;18.632;2023-02-17T09:44:20;101348.09;;;9.78;77.53
71306;BME280;59097;46.858;18.632;2023-02-17T09:53:01;101361.84;;;10.47;76.84
71306;BME280;59097;46.858;18.632;2023-02-17T09:55:41;101353.19;;;10.86;76.97
71306;BME280;59097;46.858;18.632;2023-02-17T09:58:26;101358.63;;;11.16;75.80
71306;BME280;59097;46.858;18.632;2023-02-17T10:01:03;101364.41;;;11.20;74.81
71306;BME280;59097;46.858;18.632;2023-02-17T10:03:43;101357.34;;;10.72;75.75
71306;BME280;59097;46.858;18.632;2023-02-17T10:06:28;101341.03;;;10.99;75.64
71306;BME280;59097;46.858;18.632;2023-02-17T10:09:17;101363.03;;;11.32;75.55
71306;BME280;59097;46.858;18.632;2023-02-17T10:17:28;101346.50;;;11.61;74.59
71306;BME280;59097;46.858;18.632;2023-02-17T10:22:35;101338.97;;;11.80;74.13
71306;BME280;59097;46.858;18.632;2023-02-17T10:25:16;101348.59;;;11.81;74.26
71306;BME280;59097;46.858;18.632;2023-02-17T10:27:48;101340.19;;;11.70;73.65
71306;BME280;59097;46.858;18.632;2023-02-17T10:33:30;101318.34;;;12.13;71.87
71306;BME280;59097;46.858;18.632;2023-02-17T10:42:35;101313.03;;;11.44;75.12
71306;BME280;59097;46.858;18.632;2023-02-17T10:45:29;101305.34;;;11.57;75.31
71306;BME280;59097;46.858;18.632;2023-02-17T10:50:35;101294.69;;;11.95;72.86
71306;BME280;59097;46.858;18.632;2023-02-17T10:53:18;101272.06;;;11.77;72.86
71306;BME280;59097;46.858;18.632;2023-02-17T10:56:21;101250.50;;;11.72;73.12
71306;BME280;59097;46.858;18.632;2023-02-17T10:58:56;101265.69;;;11.16;75.91
71306;BME280;59097;46.858;18.632;2023-02-17T11:01:28;101273.47;;;11.18;74.98
71306;BME280;59097;46.858;18.632;2023-02-17T11:04:08;101266.56;;;11.09;74.99
71306;BME280;59097;46.858;18.632;2023-02-17T11:06:47;101271.37;;;11.44;73.59
71306;BME280;59097;46.858;18.632;2023-02-17T11:12:00;101268.50;;;11.54;72.87
71306;BME280;59097;46.858;18.632;2023-02-17T11:14:30;101271.75;;;11.64;73.22
71306;BME280;59097;46.858;18.632;2023-02-17T11:17:00;101264.22;;;11.75;72.23
71306;BME280;59097;46.858;18.632;2023-02-17T11:19:33;101264.00;;;11.54;71.96
71306;BME280;59097;46.858;18.632;2023-02-17T11:22:26;101251.56;;;12.08;70.80
71306;BME280;59097;46.858;18.632;2023-02-17T11:25:18;101251.56;;;12.08;70.80
71306;BME280;59097;46.858;18.632;2023-02-17T11:28:14;101254.28;;;11.38;72.61
71306;BME280;59097;46.858;18.632;2023-02-17T11:30:57;101219.38;;;11.19;73.66
71306;BME280;59097;46.858;18.632;2023-02-17T11:36:01;101252.38;;;11.86;71.92
71306;BME280;59097;46.858;18.632;2023-02-17T11:41:18;101234.25;;;11.89;70.19
71306;BME280;59097;46.858;18.632;2023-02-17T11:43:56;101230.06;;;11.72;71.85
71306;BME280;59097;46.858;18.632;2023-02-17T11:46:39;101227.81;;;11.84;71.45
71306;BME280;59097;46.858;18.632;2023-02-17T11:55:45;101219.13;;;11.90;71.78
71306;BME280;59097;46.858;18.632;2023-02-17T12:04:06;101208.50;;;11.90;73.28
71306;BME280;59097;46.858;18.632;2023-02-17T12:16:01;101198.00;;;12.63;70.13
71306;BME280;59097;46.858;18.632;2023-02-17T12:27:54;101191.94;;;13.13;66.99
71306;BME280;59097;46.858;18.632;2023-02-17T12:36:14;101180.38;;;12.77;68.04
71306;BME280;59097;46.858;18.632;2023-02-17T12:38:45;101177.88;;;12.75;67.68
71306;BME280;59097;46.858;18.632;2023-02-17T12:41:33;101173.50;;;12.68;67.48
71306;BME280;59097;46.858;18.632;2023-02-17T12:47:32;101161.84;;;12.54;69.07
71306;BME280;59097;46.858;18.632;2023-02-17T12:50:13;101155.25;;;12.65;68.65
71306;BME280;59097;46.858;18.632;2023-02-17T12:52:43;101152.47;;;12.73;68.50
71306;BME280;59097;46.858;18.632;2023-02-17T12:55:23;101148.87;;;12.80;68.14
71306;BME280;59097;46.858;18.632;2023-02-17T12:58:07;101131.03;;;13.67;66.24
71306;BME280;59097;46.858;18.632;2023-02-17T13:00:43;101131.03;;;13.67;66.24
71306;BME280;59097;46.858;18.632;2023-02-17T13:03:18;101138.69;;;12.84;67.80
71306;BME280;59097;46.858;18.632;2023-02-17T13:05:57;101132.75;;;12.82;67.45
71306;BME280;59097;46.858;18.632;2023-02-17T13:08:54;101123.50;;;12.99;67.54
71306;BME280;59097;46.858;18.632;2023-02-17T13:11:33;101124.63;;;13.04;66.17
71306;BME280;59097;46.858;18.632;2023-02-17T13:14:43;101126.97;;;13.29;65.25
71306;BME280;59097;46.858;18.632;2023-02-17T13:17:31;101117.06;;;13.22;65.40
71306;BME280;59097;46.858;18.632;2023-02-17T13:22:41;101112.78;;;13.07;65.48
71306;BME280;59097;46.858;18.632;2023-02-17T13:25:30;101115.22;;;13.23;65.72
71306;BME280;59097;46.858;18.632;2023-02-17T13:28:38;101119.09;;;13.20;66.42
71306;BME280;59097;46.858;18.632;2023-02-17T13:31:18;101104.81;;;13.28;65.98
71306;BME280;59097;46.858;18.632;2023-02-17T13:40:38;101104.81;;;13.28;65.13
71306;BME280;59097;46.858;18.632;2023-02-17T13:43:41;101106.56;;;13.21;64.13
71306;BME280;59097;46.858;18.632;2023-02-17T13:46:16;101052.62;;;12.77;64.54
71306;BME280;59097;46.858;18.632;2023-02-17T13:48:58;101096.81;;;13.07;63.71
71306;BME280;59097;46.858;18.632;2023-02-17T13:51:33;101102.78;;;13.09;65.10
71306;BME280;59097;46.858;18.632;2023-02-17T13:54:10;101095.06;;;12.99;65.08
71306;BME280;59097;46.858;18.632;2023-02-17T13:56:51;101102.22;;;12.99;66.31
71306;BME280;59097;46.858;18.632;2023-02-17T13:59:34;101099.66;;;12.91;66.16
71306;BME280;59097;46.858;18.632;2023-02-17T14:08:03;101113.75;;;12.55;67.53
71306;BME280;59097;46.858;18.632;2023-02-17T14:10:46;101116.50;;;12.47;68.63
71306;BME280;59097;46.858;18.632;2023-02-17T14:13:15;101109.00;;;12.36;68.61
71306;BME280;59097;46.858;18.632;2023-02-17T14:15:56;101075.97;;;12.16;69.70
71306;BME280;59097;46.858;18.632;2023-02-17T14:21:22;101102.75;;;12.29;71.08
71306;BME280;59097;46.858;18.632;2023-02-17T14:24:04;101099.28;;;12.29;71.47
71306;BME280;59097;46.858;18.632;2023-02-17T14:29:17;101092.41;;;12.20;72.29
71306;BME280;59097;46.858;18.632;2023-02-17T14:31:54;101078.91;;;12.07;73.29
71306;BME280;59097;46.858;18.632;2023-02-17T14:34:34;101075.81;;;12.03;73.02
71306;BME280;59097;46.858;18.632;2023-02-17T14:37:19;101071.75;;;12.07;72.81
71306;BME280;59097;46.858;18.632;2023-02-17T14:40:26;101070.22;;;11.98;73.15
71306;BME280;59097;46.858;18.632;2023-02-17T14:42:56;100994.97;;;11.60;73.21
71306;BME280;59097;46.858;18.632;2023-02-17T14:45:22;101074.97;;;12.17;73.22
71306;BME280;59097;46.858;18.632;2023-02-17T14:47:52;101077.06;;;12.07;73.62
71306;BME280;59097;46.858;18.632;2023-02-17T14:50:18;101034.16;;;11.81;74.21
71306;BME280;59097;46.858;18.632;2023-02-17T14:52:46;101059.56;;;11.98;75.02
71306;BME280;59097;46.858;18.632;2023-02-17T14:55:41;101049.03;;;11.90;75.78
71306;BME280;59097;46.858;18.632;2023-02-17T14:58:20;100963.09;;;11.46;74.94
71306;BME280;59097;46.858;18.632;2023-02-17T15:00:56;101062.22;;;12.13;74.55
71306;BME280;59097;46.858;18.632;2023-02-17T15:03:25;101054.34;;;12.05;74.64
71306;BME280;59097;46.858;18.632;2023-02-17T15:05:54;101055.81;;;12.07;74.76
71306;BME280;59097;46.858;18.632;2023-02-17T15:08:32;101050.50;;;12.07;74.84
71306;BME280;59097;46.858;18.632;2023-02-17T15:11:01;101046.66;;;11.95;74.04
71306;BME280;59097;46.858;18.632;2023-02-17T15:13:30;101043.44;;;11.99;74.34
71306;BME280;59097;46.858;18.632;2023-02-17T15:15:59;101037.47;;;11.97;74.34
71306;BME280;59097;46.858;18.632;2023-02-17T15:18:42;101027.00;;;11.96;74.25
71306;BME280;59097;46.858;18.632;2023-02-17T15:21:29;101024.63;;;11.86;74.36
71306;BME280;59097;46.858;18.632;2023-02-17T15:24:24;101024.34;;;11.81;74.10
71306;BME280;59097;46.858;18.632;2023-02-17T15:26:55;101005.25;;;11.63;75.13
71306;BME280;59097;46.858;18.632;2023-02-17T15:29:27;101013.03;;;11.65;74.60